Time;durP1;ratioP1;P1;durP2;ratioP2;P2;SDS_P1;SDS_P2;PMS_P1;PMS_P2;Temp;Humidity;BMP_temperature;BMP_pressure;BME280_temperature;BME280_humidity;BME280_pressure;Samples;Min_cycle;Max_cycle;Signal;HPM_P1;HPM_P2
2022/03/04 00:00:32;;;;;;;;;;;;;;;;;;5074942;28;19983;-49
2022/03/04 00:02:57;;;;;;;;;;;;;;;;;;5074776;28;19912;-49
2022/03/04 00:05:22;;;;;;;;;;;;;;;;;;5074924;28;19919;-49
2022/03/04 00:07:47;;;;;;;;;;;;;;;;;;5074811;28;20363;-51
2022/03/04 00:10:12;;;;;;;;;;;;;;;;;;5074552;28;20268;-49
2022/03/04 00:12:37;;;;;;;;;;;;;;;;;;5074721;28;20401;-49
2022/03/04 00:15:02;;;;;;;;;;;;;;;;;;5073792;28;19923;-49
2022/03/04 00:17:27;;;;;;;;;;;;;;;;;;5074018;28;19917;-49
2022/03/04 00:19:53;;;;;;;;;;;;;;;;;;5073680;28;19920;-49
2022/03/04 00:22:18;;;;;;;;;;;;;;;;;;5074564;28;19919;-48
2022/03/04 00:24:43;;;;;;;;;;;;;;;;;;5074291;28;19958;-49
2022/03/04 00:27:08;;;;;;;;;;;;;;;;;;5073163;28;19956;-48
2022/03/04 00:29:33;;;;;;;;;;;;;;;;;;5074230;28;19947;-48
2022/03/04 00:31:58;;;;;;;;;;;;;;;;;;5074285;28;19967;-50
2022/03/04 00:34:25;;;;;;;;;;;;;;;;;;5074372;28;19919;-48
2022/03/04 00:36:50;;;;;;;;;;;;;;;;;;5074134;28;19908;-50
2022/03/04 00:39:15;;;;;;;;;;;;;;;;;;5074345;28;19912;-49
2022/03/04 00:41:40;;;;;;;;;;;;;;;;;;5074241;28;19915;-50
2022/03/04 00:44:06;;;;;;;;;;;;;;;;;;5074261;28;19974;-49
2022/03/04 00:46:31;;;;;;;;;;;;;;;;;;5074270;28;19916;-48
2022/03/04 00:48:56;;;;;;;;;;;;;;;;;;5074214;28;20326;-47
2022/03/04 00:51:21;;;;;;;;;;;;;;;;;;5073589;28;19913;-48
2022/03/04 00:53:46;;;;;;;;;;;;;;;;;;5074051;28;19954;-50
2022/03/04 00:56:11;;;;;;;;;;;;;;;;;;5073688;28;19927;-49
2022/03/04 00:58:37;;;;;;;;;;;;;;;;;;5073907;28;19923;-48
2022/03/04 01:01:02;;;;;;;;;;;;;;;;;;5074266;28;19915;-51
2022/03/04 01:03:27;;;;;;;;;;;;;;;;;;5074163;28;19912;-48
2022/03/04 01:05:52;;;;;;;;;;;;;;;;;;5074512;28;19909;-48
2022/03/04 01:08:17;;;;;;;;;;;;;;;;;;5069469;28;20003;-48
2022/03/04 01:10:42;;;;;;;;;;;;;;;;;;5073906;28;19976;-48
2022/03/04 01:13:07;;;;;;;;;;;;;;;;;;5074156;28;20350;-48
2022/03/04 01:15:32;;;;;;;;;;;;;;;;;;5073973;28;19948;-47
2022/03/04 01:17:57;;;;;;;;;;;;;;;;;;5074015;28;20364;-47
2022/03/04 01:20:22;;;;;;;;;;;;;;;;;;5073473;28;19916;-51
2022/03/04 01:22:48;;;;;;;;;;;;;;;;;;5073890;28;19920;-51
2022/03/04 01:25:13;;;;;;;;;;;;;;;;;;5073405;28;20471;-50
2022/03/04 01:27:38;;;;;;;;;;;;;;;;;;5073869;28;19916;-48
2022/03/04 01:30:03;;;;;;;;;;;;;;;;;;5073347;28;19919;-49
2022/03/04 01:32:28;;;;;;;;;;;;;;;;;;5077309;28;20252;-50
2022/03/04 01:34:53;;;;;;;;;;;;;;;;;;5077769;28;19965;-51
2022/03/04 01:37:18;;;;;;;;;;;;;;;;;;5077632;28;19978;-48
2022/03/04 01:39:43;;;;;;;;;;;;;;;;;;5077736;28;19912;-49
2022/03/04 01:42:08;;;;;;;;;;;;;;;;;;5077409;28;19912;-51
2022/03/04 01:44:34;;;;;;;;;;;;;;;;;;5077495;28;19912;-51
2022/03/04 01:46:59;;;;;;;;;;;;;;;;;;5077358;28;19916;-49
2022/03/04 01:49:24;;;;;;;;;;;;;;;;;;5077162;28;20026;-49
2022/03/04 01:51:49;;;;;;;;;;;;;;;;;;5077161;28;20008;-47
2022/03/04 01:54:14;;;;;;;;;;;;;;;;;;5076704;28;19920;-49
2022/03/04 01:56:40;;;;;;;;;;;;;;;;;;5077176;28;19908;-47
2022/03/04 01:59:05;;;;;;;;;;;;;;;;;;5071006;28;19916;-50
2022/03/04 02:01:30;;;;;;;;;;;;;;;;;;5076841;28;20259;-48
2022/03/04 02:03:55;;;;;;;;;;;;;;;;;;5077181;28;19920;-49
2022/03/04 02:06:20;;;;;;;;;;;;;;;;;;5076908;28;19912;-49
2022/03/04 02:08:45;;;;;;;;;;;;;;;;;;5077139;28;19908;-48
2022/03/04 02:11:10;;;;;;;;;;;;;;;;;;5059691;28;19908;-47
2022/03/04 02:13:37;;;;;;;;;;;;;;;;;;5059064;28;20382;-48
2022/03/04 02:16:02;;;;;;;;;;;;;;;;;;5076938;28;19920;-48
2022/03/04 02:18:27;;;;;;;;;;;;;;;;;;5076827;28;20279;-47
2022/03/04 02:20:52;;;;;;;;;;;;;;;;;;5076501;28;19912;-48
2022/03/04 02:23:17;;;;;;;;;;;;;;;;;;5076402;28;19916;-48
2022/03/04 02:25:43;;;;;;;;;;;;;;;;;;5075416;28;20102;-49
2022/03/04 02:28:08;;;;;;;;;;;;;;;;;;5076555;28;19912;-49
2022/03/04 02:30:33;;;;;;;;;;;;;;;;;;5076102;28;19913;-49
2022/03/04 02:32:58;;;;;;;;;;;;;;;;;;5076432;28;20371;-47
2022/03/04 02:35:23;;;;;;;;;;;;;;;;;;5076371;28;19912;-47
2022/03/04 02:37:49;;;;;;;;;;;;;;;;;;5076325;28;19909;-48
2022/03/04 02:40:14;;;;;;;;;;;;;;;;;;5076537;28;20256;-48
2022/03/04 02:42:39;;;;;;;;;;;;;;;;;;5075763;28;19916;-49
2022/03/04 02:45:04;;;;;;;;;;;;;;;;;;5076267;28;20314;-48
2022/03/04 02:47:29;;;;;;;;;;;;;;;;;;5076633;28;20314;-50
2022/03/04 02:49:54;;;;;;;;;;;;;;;;;;5068980;28;19908;-49
2022/03/04 02:52:19;;;;;;;;;;;;;;;;;;5076014;28;19927;-48
2022/03/04 02:54:44;;;;;;;;;;;;;;;;;;5075549;28;19921;-50
2022/03/04 02:57:09;;;;;;;;;;;;;;;;;;5075297;28;20352;-48
2022/03/04 02:59:35;;;;;;;;;;;;;;;;;;5076102;28;20401;-50
2022/03/04 03:02:00;;;;;;;;;;;;;;;;;;5075864;28;20354;-47
2022/03/04 03:04:25;;;;;;;;;;;;;;;;;;5075744;28;19912;-50
2022/03/04 03:06:52;;;;;;;;;;;;;;;;;;5075799;28;19912;-48
2022/03/04 03:09:17;;;;;;;;;;;;;;;;;;5075942;28;19987;-48
2022/03/04 03:11:42;;;;;;;;;;;;;;;;;;5075699;28;19959;-49
2022/03/04 03:14:07;;;;;;;;;;;;;;;;;;5075608;28;20397;-50
2022/03/04 03:16:32;;;;;;;;;;;;;;;;;;5075865;28;20336;-47
2022/03/04 03:18:57;;;;;;;;;;;;;;;;;;5068297;28;20476;-48
2022/03/04 03:21:22;;;;;;;;;;;;;;;;;;5075061;28;19948;-50
2022/03/04 03:23:47;;;;;;;;;;;;;;;;;;5075076;28;19940;-48
2022/03/04 03:26:12;;;;;;;;;;;;;;;;;;5074959;28;19999;-48
2022/03/04 03:28:38;;;;;;;;;;;;;;;;;;5075419;28;19914;-48
2022/03/04 03:31:03;;;;;;;;;;;;;;;;;;5075742;28;19985;-48
2022/03/04 03:33:28;;;;;;;;;;;;;;;;;;5075366;28;19915;-50
2022/03/04 03:35:54;;;;;;;;;;;;;;;;;;5075267;28;19920;-49
2022/03/04 03:38:19;;;;;;;;;;;;;;;;;;5075300;28;19995;-48
2022/03/04 03:40:44;;;;;;;;;;;;;;;;;;5075554;28;19966;-48
2022/03/04 03:43:10;;;;;;;;;;;;;;;;;;5069632;28;20007;-49
2022/03/04 03:45:35;;;;;;;;;;;;;;;;;;5075334;28;20071;-48
2022/03/04 03:48:00;;;;;;;;;;;;;;;;;;5075217;28;20019;-48
2022/03/04 03:50:25;;;;;;;;;;;;;;;;;;5075084;28;20350;-48
2022/03/04 03:52:50;;;;;;;;;;;;;;;;;;5046870;23;19925;-48
2022/03/04 03:55:15;;;;;;;;;;;;;;;;;;5034633;28;19940;-50
2022/03/04 03:57:40;;;;;;;;;;;;;;;;;;5034454;28;19920;-49
2022/03/04 04:00:05;;;;;;;;;;;;;;;;;;5035075;28;19914;-49
2022/03/04 04:02:30;;;;;;;;;;;;;;;;;;5034794;28;19913;-50
2022/03/04 04:04:56;;;;;;;;;;;;;;;;;;5034940;28;19963;-50
2022/03/04 04:07:21;;;;;;;;;;;;;;;;;;5034691;28;20015;-48
2022/03/04 04:09:46;;;;;;;;;;;;;;;;;;5034492;28;19909;-47
2022/03/04 04:12:13;;;;;;;;;;;;;;;;;;5034792;28;20335;-48
2022/03/04 04:14:38;;;;;;;;;;;;;;;;;;5034857;28;19917;-50
2022/03/04 04:17:03;;;;;;;;;;;;;;;;;;5050240;28;19909;-49
2022/03/04 04:19:28;;;;;;;;;;;;;;;;;;5034670;28;19917;-49
2022/03/04 04:21:53;;;;;;;;;;;;;;;;;;5034846;28;19996;-50
2022/03/04 04:24:18;;;;;;;;;;;;;;;;;;5034505;28;20294;-47
2022/03/04 04:26:43;;;;;;;;;;;;;;;;;;5033015;28;19921;-49
2022/03/04 04:29:08;;;;;;;;;;;;;;;;;;5034549;28;20379;-50
2022/03/04 04:31:34;;;;;;;;;;;;;;;;;;5032460;28;20276;-50
2022/03/04 04:33:59;;;;;;;;;;;;;;;;;;5035011;28;19936;-48
2022/03/04 04:36:24;;;;;;;;;;;;;;;;;;5035105;28;19909;-49
2022/03/04 04:38:49;;;;;;;;;;;;;;;;;;5042368;28;20007;-50
2022/03/04 04:41:14;;;;;;;;;;;;;;;;;;5054919;28;20003;-50
2022/03/04 04:43:39;;;;;;;;;;;;;;;;;;5054617;28;20446;-48
2022/03/04 04:46:05;;;;;;;;;;;;;;;;;;5054279;28;20280;-50
2022/03/04 04:48:30;;;;;;;;;;;;;;;;;;5054280;28;20015;-50
2022/03/04 04:50:55;;;;;;;;;;;;;;;;;;5053892;28;19995;-50
2022/03/04 04:53:20;;;;;;;;;;;;;;;;;;5054469;28;20416;-48
2022/03/04 04:55:45;;;;;;;;;;;;;;;;;;5057607;28;19917;-48
2022/03/04 04:58:10;;;;;;;;;;;;;;;;;;5054954;28;19913;-49
2022/03/04 05:00:36;;;;;;;;;;;;;;;;;;5054801;28;20364;-50
2022/03/04 05:03:01;;;;;;;;;;;;;;;;;;5054544;28;20299;-48
2022/03/04 05:05:26;;;;;;;;;;;;;;;;;;5052921;28;19913;-48
2022/03/04 05:07:51;;;;;;;;;;;;;;;;;;5058860;28;20268;-49
2022/03/04 05:10:16;;;;;;;;;;;;;;;;;;5058517;28;19963;-48
2022/03/04 05:12:42;;;;;;;;;;;;;;;;;;5058449;28;19909;-48
2022/03/04 05:15:07;;;;;;;;;;;;;;;;;;5058458;28;19912;-49
2022/03/04 05:17:32;;;;;;;;;;;;;;;;;;5058481;28;19963;-49
2022/03/04 05:19:57;;;;;;;;;;;;;;;;;;5058134;28;19909;-48
2022/03/04 05:22:22;;;;;;;;;;;;;;;;;;5061526;28;19920;-49
2022/03/04 05:24:47;;;;;;;;;;;;;;;;;;5078239;28;19915;-48
2022/03/04 05:27:12;;;;;;;;;;;;;;;;;;5068437;28;20351;-50
2022/03/04 05:29:37;;;;;;;;;;;;;;;;;;5077612;28;19912;-49
2022/03/04 05:32:02;;;;;;;;;;;;;;;;;;5077927;28;19931;-48
2022/03/04 05:34:27;;;;;;;;;;;;;;;;;;5077910;28;20274;-48
2022/03/04 05:36:53;;;;;;;;;;;;;;;;;;5078095;28;19962;-49
2022/03/04 05:39:18;;;;;;;;;;;;;;;;;;5078082;28;20268;-48
2022/03/04 05:41:43;;;;;;;;;;;;;;;;;;5078074;28;20346;-50
2022/03/04 05:44:08;;;;;;;;;;;;;;;;;;5078419;28;19915;-48
2022/03/04 05:46:33;;;;;;;;;;;;;;;;;;5077908;28;20275;-48
2022/03/04 05:48:58;;;;;;;;;;;;;;;;;;5077867;28;19912;-48
2022/03/04 05:51:23;;;;;;;;;;;;;;;;;;5076744;28;19928;-48
2022/03/04 05:53:52;;;;;;;;;;;;;;;;;;5077673;28;20382;-48
2022/03/04 05:56:17;;;;;;;;;;;;;;;;;;5059549;28;20421;-49
2022/03/04 05:58:42;;;;;;;;;;;;;;;;;;5077529;28;19912;-48
2022/03/04 06:01:07;;;;;;;;;;;;;;;;;;5077513;28;19909;-48
2022/03/04 06:03:32;;;;;;;;;;;;;;;;;;5077412;28;20407;-48
2022/03/04 06:05:57;;;;;;;;;;;;;;;;;;5076567;28;20353;-47
2022/03/04 06:08:22;;;;;;;;;;;;;;;;;;5072262;28;19920;-47
2022/03/04 06:10:48;;;;;;;;;;;;;;;;;;5057637;28;19909;-47
2022/03/04 06:13:13;;;;;;;;;;;;;;;;;;5057401;28;19916;-48
2022/03/04 06:15:38;;;;;;;;;;;;;;;;;;5072995;28;19962;-48
2022/03/04 06:18:03;;;;;;;;;;;;;;;;;;5055931;28;20268;-47
2022/03/04 06:20:28;;;;;;;;;;;;;;;;;;5056814;28;19984;-48
2022/03/04 06:22:53;;;;;;;;;;;;;;;;;;5070477;28;19916;-47
2022/03/04 06:25:19;;;;;;;;;;;;;;;;;;5075773;28;19921;-48
2022/03/04 06:27:44;;;;;;;;;;;;;;;;;;5055789;28;19913;-48
2022/03/04 06:30:09;;;;;;;;;;;;;;;;;;5068112;28;19912;-47
2022/03/04 06:32:34;;;;;;;;;;;;;;;;;;5076892;28;19962;-50
2022/03/04 06:34:59;;;;;;;;;;;;;;;;;;5076769;28;19919;-48
2022/03/04 06:37:24;;;;;;;;;;;;;;;;;;5076750;28;19916;-49
2022/03/04 06:39:49;;;;;;;;;;;;;;;;;;5076745;28;19916;-48
2022/03/04 06:42:14;;;;;;;;;;;;;;;;;;5076847;28;19915;-50
2022/03/04 06:44:40;;;;;;;;;;;;;;;;;;5076513;28;19919;-51
2022/03/04 06:47:05;;;;;;;;;;;;;;;;;;5076455;28;19909;-48
2022/03/04 06:49:30;;;;;;;;;;;;;;;;;;5076518;28;20009;-50
2022/03/04 06:51:55;;;;;;;;;;;;;;;;;;5076275;28;20007;-47
2022/03/04 06:54:20;;;;;;;;;;;;;;;;;;5076294;28;19923;-50
2022/03/04 06:56:45;;;;;;;;;;;;;;;;;;5061932;28;19966;-48
2022/03/04 06:59:10;;;;;;;;;;;;;;;;;;5056222;28;19908;-48
2022/03/04 07:01:36;;;;;;;;;;;;;;;;;;5056254;28;19913;-48
2022/03/04 07:04:01;;;;;;;;;;;;;;;;;;5056452;28;19909;-48
2022/03/04 07:06:26;;;;;;;;;;;;;;;;;;5056206;28;19909;-48
2022/03/04 07:08:51;;;;;;;;;;;;;;;;;;5056037;28;19909;-50
2022/03/04 07:11:16;;;;;;;;;;;;;;;;;;5056099;28;19913;-49
2022/03/04 07:13:41;;;;;;;;;;;;;;;;;;5056019;28;19975;-48
2022/03/04 07:16:06;;;;;;;;;;;;;;;;;;5056017;28;19916;-48
2022/03/04 07:18:32;;;;;;;;;;;;;;;;;;5056043;28;20272;-50
2022/03/04 07:20:57;;;;;;;;;;;;;;;;;;5055899;28;19960;-48
2022/03/04 07:23:22;;;;;;;;;;;;;;;;;;5055986;28;19912;-47
2022/03/04 07:25:47;;;;;;;;;;;;;;;;;;5052389;28;19916;-48
2022/03/04 07:28:12;;;;;;;;;;;;;;;;;;5075030;28;19912;-49
2022/03/04 07:30:37;;;;;;;;;;;;;;;;;;5075563;28;19916;-48
2022/03/04 07:33:02;;;;;;;;;;;;;;;;;;5057800;28;19912;-49
2022/03/04 07:35:27;;;;;;;;;;;;;;;;;;5075621;28;19913;-48
2022/03/04 07:37:53;;;;;;;;;;;;;;;;;;5075661;28;19971;-48
2022/03/04 07:40:18;;;;;;;;;;;;;;;;;;5075235;28;19920;-51
2022/03/04 07:42:43;;;;;;;;;;;;;;;;;;5075441;28;20271;-48
2022/03/04 07:45:08;;;;;;;;;;;;;;;;;;5075311;28;19909;-48
2022/03/04 07:47:33;;;;;;;;;;;;;;;;;;5075235;28;19931;-48
2022/03/04 07:49:58;;;;;;;;;;;;;;;;;;5075179;28;19908;-48
2022/03/04 07:52:31;;;;;;;;;;;;;;;;;;5076577;28;19920;-48
2022/03/04 07:54:56;;;;;;;;;;;;;;;;;;5074893;28;19916;-50
2022/03/04 07:57:21;;;;;;;;;;;;;;;;;;5056198;28;19913;-48
2022/03/04 07:59:46;;;;;;;;;;;;;;;;;;5067361;28;20317;-48
2022/03/04 08:02:11;;;;;;;;;;;;;;;;;;5075060;28;20361;-49
2022/03/04 08:04:36;;;;;;;;;;;;;;;;;;5075152;28;20007;-49
2022/03/04 08:07:02;;;;;;;;;;;;;;;;;;5074951;28;19951;-48
2022/03/04 08:09:27;;;;;;;;;;;;;;;;;;5074873;28;19905;-51
2022/03/04 08:11:53;;;;;;;;;;;;;;;;;;5075067;28;19911;-51
2022/03/04 08:14:18;;;;;;;;;;;;;;;;;;5074925;28;19951;-47
2022/03/04 08:16:43;;;;;;;;;;;;;;;;;;5074972;28;19951;-49
2022/03/04 08:19:08;;;;;;;;;;;;;;;;;;5075166;28;19916;-49
2022/03/04 08:21:33;;;;;;;;;;;;;;;;;;5075038;28;19909;-48
2022/03/04 08:23:58;;;;;;;;;;;;;;;;;;5074860;28;19932;-48
2022/03/04 08:26:23;;;;;;;;;;;;;;;;;;5050767;28;19920;-48
2022/03/04 08:28:49;;;;;;;;;;;;;;;;;;5074902;28;20381;-49
2022/03/04 08:31:14;;;;;;;;;;;;;;;;;;5074755;28;19914;-49
2022/03/04 08:33:39;;;;;;;;;;;;;;;;;;5072250;28;19962;-49
2022/03/04 08:36:04;;;;;;;;;;;;;;;;;;5054662;28;19959;-49
2022/03/04 08:38:30;;;;;;;;;;;;;;;;;;5054729;28;19935;-49
2022/03/04 08:40:55;;;;;;;;;;;;;;;;;;5053859;28;19974;-49
2022/03/04 08:43:20;;;;;;;;;;;;;;;;;;5054504;28;19963;-49
2022/03/04 08:45:45;;;;;;;;;;;;;;;;;;5053890;28;19917;-49
2022/03/04 08:48:12;;;;;;;;;;;;;;;;;;5054593;28;19908;-49
2022/03/04 08:50:37;;;;;;;;;;;;;;;;;;5052237;28;19955;-48
2022/03/04 08:53:02;;;;;;;;;;;;;;;;;;5048975;28;20364;-49
2022/03/04 08:55:27;;;;;;;;;;;;;;;;;;5054282;28;19913;-50
2022/03/04 08:57:52;;;;;;;;;;;;;;;;;;5053979;28;20364;-49
2022/03/04 09:00:17;;;;;;;;;;;;;;;;;;5054245;28;19920;-50
2022/03/04 09:02:42;;;;;;;;;;;;;;;;;;5036473;28;20368;-49
2022/03/04 09:05:07;;;;;;;;;;;;;;;;;;5054417;28;19908;-50
2022/03/04 09:07:32;;;;;;;;;;;;;;;;;;5054286;28;19909;-48
2022/03/04 09:09:58;;;;;;;;;;;;;;;;;;5054293;28;19915;-48
2022/03/04 09:12:23;;;;;;;;;;;;;;;;;;5054158;28;19955;-51
2022/03/04 09:14:48;;;;;;;;;;;;;;;;;;5054171;28;19920;-50
2022/03/04 09:17:13;;;;;;;;;;;;;;;;;;5054089;28;19924;-48
2022/03/04 09:19:39;;;;;;;;;;;;;;;;;;5054013;28;20315;-51
2022/03/04 09:22:04;;;;;;;;;;;;;;;;;;5054023;28;19916;-49
2022/03/04 09:24:29;;;;;;;;;;;;;;;;;;5053985;28;19913;-51
2022/03/04 09:26:54;;;;;;;;;;;;;;;;;;5054963;28;20112;-49
2022/03/04 09:29:20;;;;;;;;;;;;;;;;;;5036244;28;19916;-50
2022/03/04 09:31:45;;;;;;;;;;;;;;;;;;5053929;28;19908;-50
2022/03/04 09:34:11;;;;;;;;;;;;;;;;;;5053881;28;19909;-50
2022/03/04 09:36:36;;;;;;;;;;;;;;;;;;5053859;28;19913;-50
2022/03/04 09:39:01;;;;;;;;;;;;;;;;;;5054013;28;19916;-49
2022/03/04 09:41:26;;;;;;;;;;;;;;;;;;5053778;28;19916;-48
2022/03/04 09:43:52;;;;;;;;;;;;;;;;;;5053816;28;20324;-49
2022/03/04 09:46:17;;;;;;;;;;;;;;;;;;5053809;28;19909;-51
2022/03/04 09:48:42;;;;;;;;;;;;;;;;;;5053922;28;20320;-49
2022/03/04 09:51:07;;;;;;;;;;;;;;;;;;5053292;28;19928;-49
2022/03/04 09:53:32;;;;;;;;;;;;;;;;;;5057299;28;20417;-48
2022/03/04 09:55:57;;;;;;;;;;;;;;;;;;5059622;28;19927;-49
2022/03/04 09:58:23;;;;;;;;;;;;;;;;;;5057452;28;19909;-51
2022/03/04 10:00:48;;;;;;;;;;;;;;;;;;5057218;28;19909;-50
2022/03/04 10:03:13;;;;;;;;;;;;;;;;;;5057380;28;20261;-50
2022/03/04 10:05:38;;;;;;;;;;;;;;;;;;5068664;28;19920;-48
2022/03/04 10:08:04;;;;;;;;;;;;;;;;;;5077288;28;19908;-50
2022/03/04 10:10:29;;;;;;;;;;;;;;;;;;5077341;28;19909;-49
2022/03/04 10:12:57;;;;;;;;;;;;;;;;;;5059377;28;19912;-49
2022/03/04 10:15:22;;;;;;;;;;;;;;;;;;5077144;28;20011;-51
2022/03/04 10:17:48;;;;;;;;;;;;;;;;;;5077026;28;19909;-50
2022/03/04 10:20:13;;;;;;;;;;;;;;;;;;5041862;28;19921;-50
2022/03/04 10:22:42;;;;;;;;;;;;;;;;;;5056989;28;19916;-49
2022/03/04 10:25:07;;;;;;;;;;;;;;;;;;5063286;28;19960;-51
2022/03/04 10:27:32;;;;;;;;;;;;;;;;;;5075353;28;19955;-49
2022/03/04 10:29:57;;;;;;;;;;;;;;;;;;5076820;28;19962;-50
2022/03/04 10:32:24;;;;;;;;;;;;;;;;;;5076904;28;19905;-51
2022/03/04 10:34:49;;;;;;;;;;;;;;;;;;5076845;28;19955;-50
2022/03/04 10:37:14;;;;;;;;;;;;;;;;;;5076911;28;20329;-52
2022/03/04 10:39:40;;;;;;;;;;;;;;;;;;5076686;28;19908;-49
2022/03/04 10:42:05;;;;;;;;;;;;;;;;;;5076559;28;19916;-49
2022/03/04 10:44:30;;;;;;;;;;;;;;;;;;5076593;28;20382;-52
2022/03/04 10:46:55;;;;;;;;;;;;;;;;;;5072180;28;20283;-49
2022/03/04 10:49:20;;;;;;;;;;;;;;;;;;5076537;28;19909;-51
2022/03/04 10:51:45;;;;;;;;;;;;;;;;;;5060610;28;20411;-49
2022/03/04 10:54:10;;;;;;;;;;;;;;;;;;5056243;28;20356;-48
2022/03/04 10:56:35;;;;;;;;;;;;;;;;;;5061485;28;19971;-49
2022/03/04 10:59:00;;;;;;;;;;;;;;;;;;5075584;28;19916;-48
2022/03/04 11:01:26;;;;;;;;;;;;;;;;;;5076196;28;20377;-49
2022/03/04 11:03:51;;;;;;;;;;;;;;;;;;5075622;28;20362;-49
2022/03/04 11:06:16;;;;;;;;;;;;;;;;;;5075745;28;20288;-49
2022/03/04 11:08:42;;;;;;;;;;;;;;;;;;5075978;28;19908;-51
2022/03/04 11:11:07;;;;;;;;;;;;;;;;;;5076225;28;19916;-49
2022/03/04 11:13:34;;;;;;;;;;;;;;;;;;5076060;28;19908;-49
2022/03/04 11:16:00;;;;;;;;;;;;;;;;;;5076055;28;19912;-49
2022/03/04 11:18:25;;;;;;;;;;;;;;;;;;5065902;28;19917;-49
2022/03/04 11:20:50;;;;;;;;;;;;;;;;;;5055190;28;19958;-50
2022/03/04 11:23:15;;;;;;;;;;;;;;;;;;5055846;28;20383;-51
2022/03/04 11:25:40;;;;;;;;;;;;;;;;;;5055454;28;19919;-50
2022/03/04 11:28:05;;;;;;;;;;;;;;;;;;5054933;28;20345;-50
2022/03/04 11:30:31;;;;;;;;;;;;;;;;;;5072072;28;20383;-50
2022/03/04 11:32:56;;;;;;;;;;;;;;;;;;5075604;28;19913;-49
2022/03/04 11:35:21;;;;;;;;;;;;;;;;;;5057728;28;20001;-49
2022/03/04 11:37:46;;;;;;;;;;;;;;;;;;5076023;28;19908;-49
2022/03/04 11:40:33;;;;;;;;;;;;;;;;;;5076033;28;20014;-49
2022/03/04 11:42:57;;;;;;;;;;;;;;;;;;5075345;28;20398;-49
2022/03/04 11:45:22;;;;;;;;;;;;;;;;;;5075517;28;19909;-49
2022/03/04 11:47:47;;;;;;;;;;;;;;;;;;5068806;28;19913;-49
2022/03/04 11:50:12;;;;;;;;;;;;;;;;;;5045087;28;20288;-49
2022/03/04 11:52:38;;;;;;;;;;;;;;;;;;5052895;28;20375;-49
2022/03/04 11:55:03;;;;;;;;;;;;;;;;;;5052854;28;19925;-49
2022/03/04 11:57:28;;;;;;;;;;;;;;;;;;5054212;28;19921;-49
2022/03/04 11:59:53;;;;;;;;;;;;;;;;;;5055054;28;19909;-50
2022/03/04 12:02:18;;;;;;;;;;;;;;;;;;5055048;28;19954;-50
2022/03/04 12:04:44;;;;;;;;;;;;;;;;;;5054895;28;19960;-52
2022/03/04 12:07:09;;;;;;;;;;;;;;;;;;5055025;28;20003;-52
2022/03/04 12:09:34;;;;;;;;;;;;;;;;;;5054904;28;19909;-50
2022/03/04 12:11:59;;;;;;;;;;;;;;;;;;5054372;28;19920;-51
2022/03/04 12:14:24;;;;;;;;;;;;;;;;;;5051977;28;19912;-52
2022/03/04 12:16:49;;;;;;;;;;;;;;;;;;5054050;28;20344;-51
2022/03/04 12:19:14;;;;;;;;;;;;;;;;;;5054833;28;20253;-50
2022/03/04 12:21:39;;;;;;;;;;;;;;;;;;5054703;28;19909;-50
2022/03/04 12:24:04;;;;;;;;;;;;;;;;;;5052758;28;19916;-51
2022/03/04 12:26:30;;;;;;;;;;;;;;;;;;5048825;28;19921;-50
2022/03/04 12:28:55;;;;;;;;;;;;;;;;;;5074499;28;19908;-50
2022/03/04 12:31:20;;;;;;;;;;;;;;;;;;5074618;28;19908;-50
2022/03/04 12:33:45;;;;;;;;;;;;;;;;;;5074224;28;19920;-50
2022/03/04 12:36:10;;;;;;;;;;;;;;;;;;5074466;28;19944;-50
2022/03/04 12:38:35;;;;;;;;;;;;;;;;;;5074691;28;20488;-53
2022/03/04 12:41:00;;;;;;;;;;;;;;;;;;5074523;28;19908;-50
2022/03/04 12:43:26;;;;;;;;;;;;;;;;;;5074325;28;19947;-52
2022/03/04 12:45:51;;;;;;;;;;;;;;;;;;5074467;28;20006;-49
2022/03/04 12:48:16;;;;;;;;;;;;;;;;;;5074484;28;19991;-50
2022/03/04 12:50:41;;;;;;;;;;;;;;;;;;5074400;28;20054;-50
2022/03/04 12:53:06;;;;;;;;;;;;;;;;;;5074214;28;19928;-50
2022/03/04 12:55:31;;;;;;;;;;;;;;;;;;5074403;28;20003;-51
2022/03/04 12:57:56;;;;;;;;;;;;;;;;;;5056308;28;20023;-50
2022/03/04 13:00:22;;;;;;;;;;;;;;;;;;5054349;28;19999;-51
2022/03/04 13:02:47;;;;;;;;;;;;;;;;;;5054287;28;19999;-50
2022/03/04 13:05:12;;;;;;;;;;;;;;;;;;5054381;28;20003;-50
2022/03/04 13:07:37;;;;;;;;;;;;;;;;;;5054309;28;19985;-50
2022/03/04 13:10:03;;;;;;;;;;;;;;;;;;5054225;28;20326;-49
2022/03/04 13:12:28;;;;;;;;;;;;;;;;;;5054157;28;19909;-53
2022/03/04 13:14:53;;;;;;;;;;;;;;;;;;5054129;28;20349;-50
2022/03/04 13:17:18;;;;;;;;;;;;;;;;;;5052561;28;19995;-49
2022/03/04 13:19:44;;;;;;;;;;;;;;;;;;5074048;28;20275;-50
2022/03/04 13:22:09;;;;;;;;;;;;;;;;;;5074180;28;19909;-50
2022/03/04 13:24:34;;;;;;;;;;;;;;;;;;5074212;28;20043;-50
2022/03/04 13:26:59;;;;;;;;;;;;;;;;;;5069269;28;19912;-50
2022/03/04 13:29:24;;;;;;;;;;;;;;;;;;5066800;28;20423;-50
2022/03/04 13:31:51;;;;;;;;;;;;;;;;;;5057913;28;19915;-52
2022/03/04 13:34:16;;;;;;;;;;;;;;;;;;5057827;28;20027;-50
2022/03/04 13:36:42;;;;;;;;;;;;;;;;;;5057835;28;19992;-50
2022/03/04 13:39:07;;;;;;;;;;;;;;;;;;5057915;28;20315;-49
2022/03/04 13:41:32;;;;;;;;;;;;;;;;;;5057722;28;19915;-49
2022/03/04 13:43:57;;;;;;;;;;;;;;;;;;5057653;28;20359;-51
2022/03/04 13:46:26;;;;;;;;;;;;;;;;;;5057722;28;19992;-50
2022/03/04 13:48:51;;;;;;;;;;;;;;;;;;5057372;28;19912;-49
2022/03/04 13:51:16;;;;;;;;;;;;;;;;;;5057888;28;19978;-50
2022/03/04 13:53:41;;;;;;;;;;;;;;;;;;5057745;28;20003;-50
2022/03/04 13:56:06;;;;;;;;;;;;;;;;;;5038451;28;20430;-49
2022/03/04 13:58:31;;;;;;;;;;;;;;;;;;5076044;28;20384;-49
2022/03/04 14:00:57;;;;;;;;;;;;;;;;;;5077390;28;20007;-49
2022/03/04 14:03:23;;;;;;;;;;;;;;;;;;5077564;28;19909;-49
2022/03/04 14:05:48;;;;;;;;;;;;;;;;;;5076858;28;19912;-50
2022/03/04 14:08:13;;;;;;;;;;;;;;;;;;5077251;28;20439;-50
2022/03/04 14:10:38;;;;;;;;;;;;;;;;;;5077202;28;19962;-50
2022/03/04 14:13:03;;;;;;;;;;;;;;;;;;5077240;28;20390;-49
2022/03/04 14:15:29;;;;;;;;;;;;;;;;;;5077204;28;19955;-50
2022/03/04 14:17:54;;;;;;;;;;;;;;;;;;5071600;28;19935;-50
2022/03/04 14:20:19;;;;;;;;;;;;;;;;;;5056833;28;19974;-49
2022/03/04 14:22:44;;;;;;;;;;;;;;;;;;5052799;28;19916;-50
2022/03/04 14:25:09;;;;;;;;;;;;;;;;;;5056959;28;19912;-48
2022/03/04 14:27:34;;;;;;;;;;;;;;;;;;5066751;28;19917;-47
2022/03/04 14:30:00;;;;;;;;;;;;;;;;;;5062314;28;19908;-51
2022/03/04 14:32:25;;;;;;;;;;;;;;;;;;5076627;28;20283;-49
2022/03/04 14:34:50;;;;;;;;;;;;;;;;;;5076772;28;19919;-52
2022/03/04 14:37:15;;;;;;;;;;;;;;;;;;5076706;28;19915;-49
2022/03/04 14:39:40;;;;;;;;;;;;;;;;;;5075537;28;20389;-48
2022/03/04 14:42:05;;;;;;;;;;;;;;;;;;5076610;28;19909;-49
2022/03/04 14:44:32;;;;;;;;;;;;;;;;;;5076515;28;19908;-48
2022/03/04 14:46:57;;;;;;;;;;;;;;;;;;5076487;28;20007;-51
2022/03/04 14:49:23;;;;;;;;;;;;;;;;;;5058547;28;19963;-48
2022/03/04 14:51:48;;;;;;;;;;;;;;;;;;5076270;28;19966;-48
2022/03/04 14:54:13;;;;;;;;;;;;;;;;;;5076236;28;19956;-51
2022/03/04 14:56:38;;;;;;;;;;;;;;;;;;5066841;28;19921;-50
2022/03/04 14:59:05;;;;;;;;;;;;;;;;;;5056136;28;19908;-49
2022/03/04 15:01:30;;;;;;;;;;;;;;;;;;5056001;28;19909;-51
2022/03/04 15:03:55;;;;;;;;;;;;;;;;;;5055841;28;20382;-51
2022/03/04 15:06:21;;;;;;;;;;;;;;;;;;5055633;28;19916;-49
2022/03/04 15:08:46;;;;;;;;;;;;;;;;;;5055792;28;20004;-48
2022/03/04 15:11:11;;;;;;;;;;;;;;;;;;5055952;28;19936;-49
2022/03/04 15:13:39;;;;;;;;;;;;;;;;;;5055701;28;20356;-49
2022/03/04 15:16:04;;;;;;;;;;;;;;;;;;5055605;28;19913;-49
2022/03/04 15:18:29;;;;;;;;;;;;;;;;;;5055934;28;20352;-49
2022/03/04 15:20:56;;;;;;;;;;;;;;;;;;5055396;28;20265;-52
2022/03/04 15:23:21;;;;;;;;;;;;;;;;;;5055653;28;19913;-49
2022/03/04 15:25:47;;;;;;;;;;;;;;;;;;5051839;28;19909;-51
2022/03/04 15:28:12;;;;;;;;;;;;;;;;;;5067855;28;19913;-52
2022/03/04 15:30:41;;;;;;;;;;;;;;;;;;5074510;28;20269;-50
2022/03/04 15:33:06;;;;;;;;;;;;;;;;;;5075411;28;19951;-49
2022/03/04 15:35:31;;;;;;;;;;;;;;;;;;5075263;28;19977;-50
2022/03/04 15:37:56;;;;;;;;;;;;;;;;;;5075322;28;20387;-52
2022/03/04 15:40:21;;;;;;;;;;;;;;;;;;5075185;28;19943;-49
2022/03/04 15:42:47;;;;;;;;;;;;;;;;;;5075540;28;19916;-51
2022/03/04 15:45:12;;;;;;;;;;;;;;;;;;5074996;28;19908;-50
2022/03/04 15:47:37;;;;;;;;;;;;;;;;;;5045719;28;19913;-50
2022/03/04 15:50:02;;;;;;;;;;;;;;;;;;5055327;28;19913;-50
2022/03/04 15:52:28;;;;;;;;;;;;;;;;;;5045668;23;19987;-50
2022/03/04 15:54:53;;;;;;;;;;;;;;;;;;5035250;28;19920;-52
2022/03/04 15:57:20;;;;;;;;;;;;;;;;;;5044645;28;21441;-51
2022/03/04 15:59:46;;;;;;;;;;;;;;;;;;5035130;28;19909;-52
2022/03/04 16:02:11;;;;;;;;;;;;;;;;;;5024624;28;20044;-50
2022/03/04 16:04:36;;;;;;;;;;;;;;;;;;5015289;28;19980;-52
2022/03/04 16:07:01;;;;;;;;;;;;;;;;;;5015277;28;19909;-53
2022/03/04 16:09:26;;;;;;;;;;;;;;;;;;5015306;28;19917;-50
2022/03/04 16:11:51;;;;;;;;;;;;;;;;;;5015353;28;20008;-50
2022/03/04 16:14:16;;;;;;;;;;;;;;;;;;5015112;28;19914;-50
2022/03/04 16:16:42;;;;;;;;;;;;;;;;;;5015050;28;19914;-52
2022/03/04 16:19:07;;;;;;;;;;;;;;;;;;5015249;28;19909;-50
2022/03/04 16:21:32;;;;;;;;;;;;;;;;;;5023929;28;19928;-49
2022/03/04 16:23:57;;;;;;;;;;;;;;;;;;5034888;28;19909;-51
2022/03/04 16:26:22;;;;;;;;;;;;;;;;;;5033070;28;19915;-50
2022/03/04 16:28:48;;;;;;;;;;;;;;;;;;5034590;28;19909;-50
2022/03/04 16:31:13;;;;;;;;;;;;;;;;;;5034763;28;20303;-50